Terminal Aerodrome Forecast
Issued by NWS

Home | Current Version | Previous Version | Text Only | Print | Product List | Glossary On
Versions: 1 2 3 4 5 6 7 8 9 10 11 12 13 14 15 16
000
FTUS43 KEAX 260500
TAFSTJ
TAF
KSTJ 260539Z 2606/2706 36020G28KT P6SM VCSH BKN022
      TEMPO 2606/2608 SCT022
     FM261000 36018G25KT P6SM BKN022
     FM261400 36015G23KT P6SM SCT025
     FM262300 01012KT P6SM SKC=

USA.gov is the U.S. government's official web portal to all federal, state and local government web resources and services.